createdAt,value
2023-02-21T00:00:13.134Z,12.30
2023-02-21T00:03:00.162Z,11.43
2023-02-21T00:05:47.149Z,12.10
2023-02-21T00:08:34.442Z,11.45
2023-02-21T00:11:23.819Z,12.80
2023-02-21T00:14:11.117Z,11.82
2023-02-21T00:16:58.102Z,13.05
2023-02-21T00:19:45.019Z,12.15
2023-02-21T00:22:31.874Z,12.48
2023-02-21T00:25:19.200Z,12.88
2023-02-21T00:28:06.664Z,12.05
2023-02-21T00:30:55.401Z,12.80
2023-02-21T00:33:43.535Z,11.40
2023-02-21T00:36:36.539Z,13.38
2023-02-21T00:39:23.756Z,13.05
2023-02-21T00:42:10.899Z,12.63
2023-02-21T00:44:57.772Z,13.65
2023-02-21T00:47:44.672Z,11.55
2023-02-21T00:50:33.236Z,13.70
2023-02-21T00:53:20.732Z,12.63
2023-02-21T00:56:07.734Z,13.85
2023-02-21T00:58:54.834Z,12.70
2023-02-21T01:01:44.279Z,13.20
2023-02-21T01:04:34.543Z,12.70
2023-02-21T01:07:21.817Z,13.45
2023-02-21T01:10:08.754Z,13.98
2023-02-21T01:12:55.688Z,14.48
2023-02-21T01:15:44.074Z,13.20
2023-02-21T01:18:30.914Z,11.85
2023-02-21T01:21:18.020Z,13.05
2023-02-21T01:24:04.996Z,13.43
2023-02-21T01:26:52.058Z,13.45
2023-02-21T01:29:38.788Z,14.00
2023-02-21T01:32:25.899Z,14.38
2023-02-21T01:35:12.991Z,14.05
2023-02-21T01:38:01.481Z,14.52
2023-02-21T01:40:48.507Z,14.63
2023-02-21T01:43:42.235Z,13.73
2023-02-21T01:46:33.688Z,14.18
2023-02-21T01:49:25.598Z,14.85
2023-02-21T01:52:13.775Z,13.82
2023-02-21T01:55:05.536Z,22.48
2023-02-21T01:57:54.733Z,13.43
2023-02-21T02:00:41.776Z,13.60
2023-02-21T02:03:32.639Z,13.57
2023-02-21T02:06:27.126Z,13.63
2023-02-21T02:09:14.289Z,15.65
2023-02-21T02:12:19.454Z,13.38
2023-02-21T02:15:12.834Z,13.32
2023-02-21T02:18:07.849Z,13.15
2023-02-21T02:21:15.325Z,14.15
2023-02-21T02:24:17.864Z,12.57
2023-02-21T02:26:49.193Z,13.95
2023-02-21T02:29:44.477Z,12.68
2023-02-21T02:32:41.157Z,14.05
2023-02-21T02:35:23.676Z,13.13
2023-02-21T02:38:13.461Z,13.27
2023-02-21T02:41:00.584Z,14.27
2023-02-21T02:43:36.275Z,12.77
2023-02-21T02:46:28.226Z,13.85
2023-02-21T02:49:09.984Z,12.98
2023-02-21T02:51:38.776Z,13.40
2023-02-21T02:54:09.493Z,14.55
2023-02-21T02:56:39.706Z,12.43
2023-02-21T02:59:18.775Z,12.70
2023-02-21T03:02:00.249Z,12.48
2023-02-21T03:04:54.450Z,13.43
2023-02-21T03:07:32.371Z,12.48
2023-02-21T03:10:15.059Z,12.35
2023-02-21T03:13:05.952Z,14.40
2023-02-21T03:16:18.574Z,14.98
2023-02-21T03:19:03.004Z,12.00
2023-02-21T03:24:06.750Z,12.10
2023-02-21T03:26:41.135Z,11.75
2023-02-21T03:29:41.198Z,12.48
2023-02-21T03:32:18.747Z,11.68
2023-02-21T03:34:48.533Z,11.75
2023-02-21T03:37:22.233Z,12.73
2023-02-21T03:39:51.537Z,11.27
2023-02-21T03:42:20.282Z,11.07
2023-02-21T03:44:49.355Z,10.68
2023-02-21T03:47:18.516Z,11.57
2023-02-21T03:49:47.857Z,11.25
2023-02-21T03:52:16.870Z,12.07
2023-02-21T03:54:45.853Z,11.07
2023-02-21T03:57:18.475Z,9.13
2023-02-21T03:59:49.412Z,9.45
2023-02-21T04:02:19.633Z,10.00
2023-02-21T04:04:49.381Z,8.98
2023-02-21T04:07:22.288Z,9.48
2023-02-21T04:09:52.028Z,9.25
2023-02-21T04:12:27.048Z,10.40
2023-02-21T04:14:57.139Z,8.95
2023-02-21T04:17:26.616Z,8.60
2023-02-21T04:19:59.312Z,9.15
2023-02-21T04:22:28.088Z,8.23
2023-02-21T04:24:57.463Z,8.43
2023-02-21T04:27:27.672Z,7.75
2023-02-21T04:29:58.300Z,8.82
2023-02-21T04:32:27.740Z,8.35
2023-02-21T04:34:57.541Z,8.63
2023-02-21T04:37:26.241Z,8.18
2023-02-21T04:39:55.349Z,7.45
2023-02-21T04:42:23.983Z,8.57
2023-02-21T04:44:59.976Z,7.43
2023-02-21T04:47:30.442Z,6.85
2023-02-21T04:49:59.330Z,7.70
2023-02-21T04:52:28.122Z,6.95
2023-02-21T04:54:56.948Z,8.98
2023-02-21T04:57:25.692Z,7.72
2023-02-21T04:59:59.217Z,7.95
2023-02-21T05:02:28.968Z,6.72
2023-02-21T05:04:57.488Z,7.05
2023-02-21T05:07:26.341Z,6.82
2023-02-21T05:09:54.977Z,7.13
2023-02-21T05:12:23.712Z,6.28
2023-02-21T05:14:52.262Z,7.00
2023-02-21T05:17:20.991Z,6.88
2023-02-21T05:19:49.772Z,6.78
2023-02-21T05:22:20.966Z,6.63
2023-02-21T05:24:50.311Z,6.00
2023-02-21T05:27:22.033Z,6.80
2023-02-21T05:29:53.072Z,6.60
2023-02-21T05:32:22.951Z,6.30
2023-02-21T05:34:51.605Z,6.38
2023-02-21T05:37:21.963Z,6.82
2023-02-21T05:39:50.903Z,6.18
2023-02-21T05:42:19.915Z,5.50
2023-02-21T05:44:49.332Z,5.05
2023-02-21T05:47:18.302Z,5.80
2023-02-21T05:49:47.210Z,6.05
2023-02-21T05:52:18.139Z,6.00
2023-02-21T05:54:46.762Z,5.97
2023-02-21T05:57:17.367Z,5.50
2023-02-21T05:59:48.950Z,5.70
2023-02-21T06:02:17.664Z,5.63
2023-02-21T06:04:46.439Z,5.00
2023-02-21T06:07:15.013Z,5.40
2023-02-21T06:09:43.613Z,5.32
2023-02-21T06:12:12.355Z,5.00
2023-02-21T06:14:40.972Z,5.18
2023-02-21T06:17:09.820Z,5.25
2023-02-21T06:19:38.485Z,4.95
2023-02-21T06:22:07.334Z,5.20
2023-02-21T06:24:36.107Z,4.90
2023-02-21T06:27:05.125Z,5.10
2023-02-21T06:29:36.166Z,5.10
2023-02-21T06:32:04.971Z,4.80
2023-02-21T06:34:34.055Z,4.97
2023-02-21T06:37:02.890Z,4.93
2023-02-21T06:39:31.690Z,5.13
2023-02-21T06:42:00.850Z,5.00
2023-02-21T06:44:29.721Z,4.93
2023-02-21T06:46:58.225Z,4.63
2023-02-21T06:49:27.163Z,4.35
2023-02-21T06:51:55.800Z,4.85
2023-02-21T06:54:24.466Z,4.90
2023-02-21T06:56:53.155Z,4.90
2023-02-21T06:59:21.785Z,4.47
2023-02-21T07:01:50.649Z,4.82
2023-02-21T07:04:19.285Z,4.57
2023-02-21T07:06:47.921Z,4.93
2023-02-21T07:09:22.398Z,4.40
2023-02-21T07:11:51.059Z,4.80
2023-02-21T07:14:19.812Z,4.85
2023-02-21T07:16:48.474Z,4.55
2023-02-21T07:19:21.454Z,4.47
2023-02-21T07:21:50.709Z,5.05
2023-02-21T07:24:20.504Z,4.38
2023-02-21T07:26:49.852Z,4.22
2023-02-21T07:29:18.715Z,4.65
2023-02-21T07:31:47.934Z,3.97
2023-02-21T07:34:20.389Z,4.45
2023-02-21T07:36:49.062Z,4.25
2023-02-21T07:39:17.826Z,4.40
2023-02-21T07:41:46.354Z,4.38
2023-02-21T07:44:24.117Z,4.97
2023-02-21T07:46:53.394Z,4.47
2023-02-21T07:49:22.525Z,5.18
2023-02-21T07:51:51.619Z,4.15
2023-02-21T07:54:20.397Z,5.13
2023-02-21T07:56:50.409Z,4.65
2023-02-21T07:59:19.228Z,5.35
2023-02-21T08:01:48.694Z,5.18
2023-02-21T08:04:21.958Z,4.78
2023-02-21T08:06:54.048Z,4.90
2023-02-21T08:09:23.533Z,5.78
2023-02-21T08:11:52.310Z,5.10
2023-02-21T08:14:21.211Z,5.32
2023-02-21T08:16:49.906Z,4.97
2023-02-21T08:19:18.752Z,5.03
2023-02-21T08:21:48.910Z,4.75
2023-02-21T08:24:19.221Z,5.03
2023-02-21T08:26:47.914Z,4.63
2023-02-21T08:29:18.766Z,4.80
2023-02-21T08:31:47.521Z,4.88
2023-02-21T08:34:16.195Z,5.20
2023-02-21T08:36:45.296Z,4.75
2023-02-21T08:39:14.964Z,4.55
2023-02-21T08:41:52.985Z,5.35
2023-02-21T08:44:22.524Z,4.65
2023-02-21T08:46:51.433Z,5.07
2023-02-21T08:49:20.231Z,5.47
2023-02-21T08:51:48.847Z,4.93
2023-02-21T08:54:17.343Z,5.20
2023-02-21T08:56:45.877Z,5.07
2023-02-21T08:59:14.652Z,5.55
2023-02-21T09:01:45.810Z,5.05
2023-02-21T09:04:14.728Z,5.22
2023-02-21T09:06:43.290Z,5.05
2023-02-21T09:09:12.029Z,5.40
2023-02-21T09:11:47.737Z,5.50
2023-02-21T09:14:17.748Z,5.32
2023-02-21T09:16:47.859Z,5.57
2023-02-21T09:19:17.467Z,6.13
2023-02-21T09:21:49.090Z,5.40
2023-02-21T09:24:17.631Z,5.85
2023-02-21T09:26:47.975Z,5.00
2023-02-21T09:29:17.401Z,5.47
2023-02-21T09:31:46.099Z,5.88
2023-02-21T09:34:14.962Z,6.13
2023-02-21T09:36:44.064Z,5.63
2023-02-21T09:39:13.448Z,5.32
2023-02-21T09:41:45.863Z,5.07
2023-02-21T09:44:19.444Z,5.47
2023-02-21T09:46:51.731Z,5.88
2023-02-21T09:49:23.565Z,5.60
2023-02-21T09:51:52.563Z,5.60
2023-02-21T09:54:29.220Z,5.78
2023-02-21T09:57:01.486Z,5.80
2023-02-21T09:59:30.766Z,5.97
2023-02-21T10:02:25.888Z,5.93
2023-02-21T10:05:04.948Z,5.38
2023-02-21T10:07:59.956Z,5.82
2023-02-21T10:10:38.019Z,5.63
2023-02-21T10:13:23.036Z,5.45
2023-02-21T10:16:12.592Z,6.05
2023-02-21T10:18:49.165Z,5.57
2023-02-21T10:21:45.709Z,5.82
2023-02-21T10:24:22.468Z,6.13
2023-02-21T10:26:59.878Z,5.60
2023-02-21T10:29:47.485Z,5.97
2023-02-21T10:32:16.553Z,6.10
2023-02-21T10:34:48.072Z,5.80
2023-02-21T10:37:35.387Z,6.05
2023-02-21T10:40:25.854Z,6.00
2023-02-21T10:43:17.734Z,6.43
2023-02-21T10:45:54.735Z,6.05
2023-02-21T10:48:28.931Z,6.07
2023-02-21T10:51:13.588Z,6.43
2023-02-21T10:53:45.006Z,6.20
2023-02-21T10:56:17.283Z,6.50
2023-02-21T10:58:47.198Z,6.20
2023-02-21T11:01:19.823Z,5.95
2023-02-21T11:03:52.297Z,6.53
2023-02-21T11:06:34.207Z,6.68
2023-02-21T11:09:04.544Z,6.35
2023-02-21T11:11:43.640Z,6.05
2023-02-21T11:14:24.035Z,6.93
2023-02-21T11:17:08.232Z,6.10
2023-02-21T11:20:08.333Z,6.85
2023-02-21T11:22:45.682Z,6.20
2023-02-21T11:25:24.286Z,6.40
2023-02-21T11:28:11.403Z,6.68
2023-02-21T11:30:45.230Z,6.70
2023-02-21T11:33:14.277Z,6.60
2023-02-21T11:35:49.218Z,6.80
2023-02-21T11:38:39.278Z,6.38
2023-02-21T11:41:29.309Z,7.10
2023-02-21T11:43:59.028Z,6.55
2023-02-21T11:46:50.918Z,5.70
2023-02-21T11:49:26.898Z,7.03
2023-02-21T11:52:01.465Z,6.43
2023-02-21T11:54:31.628Z,6.63
2023-02-21T11:57:00.375Z,6.22
2023-02-21T11:59:29.018Z,6.22
2023-02-21T12:02:06.602Z,6.50
2023-02-21T12:04:47.981Z,6.93
2023-02-21T12:07:30.081Z,6.88
2023-02-21T12:10:39.283Z,6.90
2023-02-21T12:13:23.693Z,6.68
2023-02-21T12:16:16.016Z,6.65
2023-02-21T12:19:11.762Z,6.55
2023-02-21T12:24:44.767Z,6.68
2023-02-21T12:27:23.415Z,7.13
2023-02-21T12:30:07.222Z,7.25
2023-02-21T12:32:58.090Z,7.80
2023-02-21T12:35:45.953Z,8.43
2023-02-21T12:38:18.855Z,8.88
2023-02-21T12:41:13.663Z,7.75
2023-02-21T12:43:56.998Z,7.32
2023-02-21T12:46:50.031Z,7.60
2023-02-21T12:49:28.494Z,7.47
2023-02-21T12:52:30.094Z,7.18
2023-02-21T12:55:02.015Z,7.75
2023-02-21T12:57:57.012Z,7.25
2023-02-21T13:00:32.399Z,6.90
2023-02-21T13:03:25.931Z,7.43
2023-02-21T13:06:19.749Z,7.18
2023-02-21T13:08:55.127Z,7.47
2023-02-21T13:11:36.495Z,6.97
2023-02-21T13:14:12.389Z,6.75
2023-02-21T13:16:41.552Z,7.07
2023-02-21T13:19:13.541Z,7.63
2023-02-21T13:22:36.418Z,8.27
2023-02-21T13:25:44.406Z,6.90
2023-02-21T13:28:25.313Z,7.85
2023-02-21T13:31:00.664Z,6.65
2023-02-21T13:33:53.226Z,6.15
2023-02-21T13:36:49.587Z,5.88
2023-02-21T13:39:22.631Z,4.57
2023-02-21T13:41:57.436Z,5.78
2023-02-21T13:44:36.598Z,4.38
2023-02-21T13:47:08.601Z,3.90
2023-02-21T13:49:51.614Z,4.00
2023-02-21T13:52:27.244Z,4.07
2023-02-21T13:55:19.510Z,4.10
2023-02-21T13:57:57.496Z,4.35
2023-02-21T14:00:26.162Z,3.72
2023-02-21T14:03:02.207Z,4.20
2023-02-21T14:05:47.323Z,4.13
2023-02-21T14:08:30.552Z,5.20
2023-02-21T14:11:16.039Z,5.40
2023-02-21T14:14:03.650Z,5.72
2023-02-21T14:19:27.649Z,5.80
2023-02-21T14:22:16.399Z,7.15
2023-02-21T14:24:51.571Z,4.28
2023-02-21T14:27:20.133Z,4.97
2023-02-21T14:30:03.930Z,3.92
2023-02-21T14:32:40.065Z,4.20
2023-02-21T14:35:47.345Z,4.30
2023-02-21T14:38:26.022Z,4.05
2023-02-21T14:41:38.047Z,4.00
2023-02-21T14:44:25.026Z,4.15
2023-02-21T14:47:26.374Z,4.80
2023-02-21T14:50:08.112Z,5.45
2023-02-21T14:53:07.861Z,7.00
2023-02-21T14:55:45.733Z,4.75
2023-02-21T14:58:38.900Z,5.07
2023-02-21T15:01:41.322Z,6.45
2023-02-21T15:04:26.612Z,9.32
2023-02-21T15:09:42.486Z,8.20
2023-02-21T15:12:16.264Z,4.45
2023-02-21T15:14:54.327Z,5.53
2023-02-21T15:17:25.909Z,4.68
2023-02-21T15:20:24.146Z,6.80
2023-02-21T15:23:15.178Z,4.28
2023-02-21T15:25:49.924Z,4.47
2023-02-21T15:28:32.334Z,7.90
2023-02-21T15:31:08.725Z,5.07
2023-02-21T15:33:42.981Z,4.82
2023-02-21T15:36:21.970Z,5.47
2023-02-21T15:39:09.351Z,10.48
2023-02-21T15:41:41.222Z,5.90
2023-02-21T15:44:17.523Z,10.65
2023-02-21T15:46:58.741Z,4.90
2023-02-21T15:49:39.308Z,5.10
2023-02-21T15:52:08.184Z,11.07
2023-02-21T15:54:40.080Z,7.07
2023-02-21T15:57:14.724Z,6.55
2023-02-21T15:59:43.602Z,4.90
2023-02-21T16:02:28.938Z,4.97
2023-02-21T16:04:58.804Z,9.13
2023-02-21T16:07:36.213Z,6.03
2023-02-21T16:10:08.919Z,4.72
2023-02-21T16:12:44.312Z,9.73
2023-02-21T16:15:19.100Z,5.60
2023-02-21T16:17:57.534Z,4.90
2023-02-21T16:20:36.231Z,8.45
2023-02-21T16:23:45.663Z,5.60
2023-02-21T16:26:14.623Z,6.75
2023-02-21T16:28:46.545Z,5.47
2023-02-21T16:31:34.913Z,5.60
2023-02-21T16:34:04.400Z,4.75
2023-02-21T16:36:33.815Z,8.98
2023-02-21T16:39:02.680Z,4.88
2023-02-21T16:41:31.306Z,7.50
2023-02-21T16:44:00.034Z,4.95
2023-02-21T16:46:30.489Z,6.75
2023-02-21T16:49:00.666Z,6.55
2023-02-21T16:51:34.163Z,5.28
2023-02-21T16:54:04.289Z,4.80
2023-02-21T16:56:33.711Z,4.95
2023-02-21T16:59:03.785Z,4.93
2023-02-21T17:01:37.173Z,5.22
2023-02-21T17:04:07.724Z,4.50
2023-02-21T17:06:36.360Z,4.53
2023-02-21T17:09:05.231Z,4.63
2023-02-21T17:11:34.017Z,5.35
2023-02-21T17:14:02.569Z,5.30
2023-02-21T17:16:33.387Z,7.75
2023-02-21T17:19:02.093Z,8.40
2023-02-21T17:21:33.216Z,6.25
2023-02-21T17:24:04.618Z,11.23
2023-02-21T17:26:33.577Z,10.75
2023-02-21T17:29:02.396Z,13.40
2023-02-21T17:31:31.614Z,7.82
2023-02-21T17:34:00.226Z,7.65
2023-02-21T17:36:30.749Z,27.83
2023-02-21T17:39:00.007Z,8.43
2023-02-21T17:41:29.729Z,7.28
2023-02-21T17:43:59.273Z,9.77
2023-02-21T17:46:27.923Z,7.88
2023-02-21T17:48:56.744Z,6.95
2023-02-21T17:51:28.312Z,9.90
2023-02-21T17:53:57.528Z,5.93
2023-02-21T17:56:26.493Z,5.28
2023-02-21T17:58:55.970Z,8.60
2023-02-21T18:01:24.750Z,5.85
2023-02-21T18:03:53.426Z,5.85
2023-02-21T18:06:23.039Z,19.42
2023-02-21T18:08:52.016Z,5.22
2023-02-21T18:11:21.030Z,5.47
2023-02-21T18:13:50.336Z,5.35
2023-02-21T18:16:19.486Z,4.50
2023-02-21T18:18:48.473Z,5.80
2023-02-21T18:21:17.983Z,4.63
2023-02-21T18:23:47.691Z,5.63
2023-02-21T18:26:16.988Z,5.13
2023-02-21T18:28:45.974Z,4.72
2023-02-21T18:31:19.479Z,6.15
2023-02-21T18:33:50.004Z,8.00
2023-02-21T18:36:18.995Z,5.38
2023-02-21T18:38:47.832Z,5.55
2023-02-21T18:41:21.093Z,5.07
2023-02-21T18:43:51.316Z,11.30
2023-02-21T18:46:24.814Z,5.15
2023-02-21T18:48:53.636Z,4.53
2023-02-21T18:51:22.497Z,7.10
2023-02-21T18:53:51.616Z,6.00
2023-02-21T18:56:22.715Z,10.30
2023-02-21T18:58:51.725Z,6.07
2023-02-21T19:01:22.712Z,8.82
2023-02-21T19:03:52.290Z,6.53
2023-02-21T19:06:23.636Z,6.80
2023-02-21T19:08:55.087Z,9.15
2023-02-21T19:11:23.802Z,5.45
2023-02-21T19:13:52.584Z,7.00
2023-02-21T19:16:21.506Z,6.55
2023-02-21T19:18:52.260Z,9.30
2023-02-21T19:21:21.112Z,10.38
2023-02-21T19:23:49.759Z,8.95
2023-02-21T19:26:19.253Z,8.35
2023-02-21T19:28:48.254Z,7.55
2023-02-21T19:31:20.763Z,10.55
2023-02-21T19:33:49.871Z,8.63
2023-02-21T19:36:20.913Z,8.30
2023-02-21T19:38:50.450Z,8.80
2023-02-21T19:41:20.638Z,9.35
2023-02-21T19:43:52.157Z,8.73
2023-02-21T19:46:22.912Z,8.38
2023-02-21T19:48:52.235Z,8.73
2023-02-21T19:51:23.629Z,7.63
2023-02-21T19:53:53.973Z,6.68
2023-02-21T19:56:25.810Z,7.90
2023-02-21T19:58:54.890Z,7.35
2023-02-21T20:01:27.247Z,8.02
2023-02-21T20:03:56.129Z,7.32
2023-02-21T20:06:30.885Z,7.32
2023-02-21T20:11:28.310Z,7.57
2023-02-21T20:13:57.178Z,8.48
2023-02-21T20:16:26.819Z,7.88
2023-02-21T20:18:55.833Z,8.10
2023-02-21T20:21:32.031Z,7.35
2023-02-21T20:24:01.921Z,7.65
2023-02-21T20:26:32.972Z,6.78
2023-02-21T20:29:01.610Z,7.53
2023-02-21T20:31:33.412Z,7.75
2023-02-21T20:34:06.331Z,7.75
2023-02-21T20:36:38.865Z,6.82
2023-02-21T20:39:19.356Z,7.15
2023-02-21T20:41:48.175Z,7.13
2023-02-21T20:44:17.318Z,7.30
2023-02-21T20:46:46.213Z,8.52
2023-02-21T20:49:14.918Z,8.60
2023-02-21T20:51:44.575Z,8.68
2023-02-21T20:54:20.434Z,9.77
2023-02-21T20:56:51.422Z,8.95
2023-02-21T20:59:24.574Z,8.75
2023-02-21T21:01:54.264Z,8.75
2023-02-21T21:04:27.473Z,7.95
2023-02-21T21:06:59.690Z,8.38
2023-02-21T21:09:34.830Z,8.02
2023-02-21T21:12:08.052Z,7.75
2023-02-21T21:14:40.330Z,7.60
2023-02-21T21:17:09.552Z,7.53
2023-02-21T21:19:38.570Z,7.20
2023-02-21T21:22:10.370Z,6.55
2023-02-21T21:24:40.313Z,6.35
2023-02-21T21:27:10.921Z,6.68
2023-02-21T21:29:44.169Z,6.50
2023-02-21T21:32:16.310Z,6.60
2023-02-21T21:34:47.889Z,6.75
2023-02-21T21:37:19.306Z,6.13
2023-02-21T21:39:55.396Z,6.07
2023-02-21T21:42:28.674Z,6.10
2023-02-21T21:44:58.460Z,5.90
2023-02-21T21:47:37.888Z,5.82
2023-02-21T21:50:07.246Z,5.07
2023-02-21T21:52:36.126Z,5.78
2023-02-21T21:55:05.124Z,5.38
2023-02-21T21:57:34.311Z,6.22
2023-02-21T22:00:02.892Z,5.53
2023-02-21T22:02:37.983Z,5.68
2023-02-21T22:05:07.013Z,6.20
2023-02-21T22:07:35.685Z,6.20
2023-02-21T22:10:06.015Z,5.60
2023-02-21T22:12:34.599Z,6.28
2023-02-21T22:15:03.589Z,5.88
2023-02-21T22:17:32.243Z,6.20
2023-02-21T22:20:00.954Z,6.00
2023-02-21T22:22:29.693Z,6.55
2023-02-21T22:25:01.072Z,6.50
2023-02-21T22:27:29.890Z,6.43
2023-02-21T22:29:58.545Z,6.65
2023-02-21T22:32:27.280Z,7.65
2023-02-21T22:34:56.065Z,7.13
2023-02-21T22:37:24.806Z,7.30
2023-02-21T22:39:53.490Z,8.15
2023-02-21T22:42:22.190Z,9.05
2023-02-21T22:44:51.408Z,9.40
2023-02-21T22:47:20.030Z,10.45
2023-02-21T22:49:49.249Z,11.02
2023-02-21T22:52:18.209Z,11.10
2023-02-21T22:54:48.273Z,11.82
2023-02-21T22:57:16.967Z,13.80
2023-02-21T22:59:46.642Z,12.48
2023-02-21T23:02:17.506Z,12.13
2023-02-21T23:04:47.315Z,12.77
2023-02-21T23:07:16.511Z,12.93
2023-02-21T23:09:46.217Z,11.88
2023-02-21T23:12:15.647Z,12.65
2023-02-21T23:14:44.472Z,15.35
2023-02-21T23:17:13.166Z,15.10
2023-02-21T23:19:42.262Z,14.70
2023-02-21T23:22:11.098Z,12.70
2023-02-21T23:24:39.879Z,15.35
2023-02-21T23:27:09.632Z,14.63
2023-02-21T23:29:40.206Z,15.68
2023-02-21T23:32:11.716Z,16.63
2023-02-21T23:34:41.069Z,17.35
2023-02-21T23:37:12.932Z,16.15
2023-02-21T23:39:42.887Z,15.82
2023-02-21T23:42:11.751Z,15.63
2023-02-21T23:44:40.357Z,16.40
2023-02-21T23:47:09.345Z,15.52
2023-02-21T23:49:44.598Z,15.02
2023-02-21T23:52:13.459Z,14.07
2023-02-21T23:54:42.252Z,12.18
2023-02-21T23:57:10.894Z,13.25
2023-02-21T23:59:39.785Z,12.77
